sensor_id;sensor_type;location;lat;lon;timestamp;P1;durP1;ratioP1;P2;durP2;ratioP2
15899;SDS011;8048;50.644;6.184;2023-02-01T00:01:09;14.33;;;11.43;;
15899;SDS011;8048;50.644;6.184;2023-02-01T00:03:35;15.90;;;11.07;;
15899;SDS011;8048;50.644;6.184;2023-02-01T00:06:01;24.57;;;9.90;;
15899;SDS011;8048;50.644;6.184;2023-02-01T00:08:27;17.27;;;9.77;;
15899;SDS011;8048;50.644;6.184;2023-02-01T00:10:59;14.90;;;10.70;;
15899;SDS011;8048;50.644;6.184;2023-02-01T00:13:27;16.00;;;11.07;;
15899;SDS011;8048;50.644;6.184;2023-02-01T00:16:04;12.10;;;10.40;;
15899;SDS011;8048;50.644;6.184;2023-02-01T00:18:30;15.50;;;10.10;;
15899;SDS011;8048;50.644;6.184;2023-02-01T00:20:56;14.13;;;9.10;;
15899;SDS011;8048;50.644;6.184;2023-02-01T00:23:22;12.73;;;10.30;;
15899;SDS011;8048;50.644;6.184;2023-02-01T00:25:48;23.50;;;9.67;;
15899;SDS011;8048;50.644;6.184;2023-02-01T00:28:13;10.97;;;9.03;;
15899;SDS011;8048;50.644;6.184;2023-02-01T00:30:39;23.63;;;10.53;;
15899;SDS011;8048;50.644;6.184;2023-02-01T00:33:04;15.20;;;9.10;;
15899;SDS011;8048;50.644;6.184;2023-02-01T00:35:30;21.90;;;11.07;;
15899;SDS011;8048;50.644;6.184;2023-02-01T00:37:55;11.97;;;9.60;;
15899;SDS011;8048;50.644;6.184;2023-02-01T00:40:23;13.37;;;10.70;;
15899;SDS011;8048;50.644;6.184;2023-02-01T00:42:49;9.37;;;7.87;;
15899;SDS011;8048;50.644;6.184;2023-02-01T00:45:14;13.30;;;9.20;;
15899;SDS011;8048;50.644;6.184;2023-02-01T00:47:40;24.50;;;10.03;;
15899;SDS011;8048;50.644;6.184;2023-02-01T00:50:06;18.27;;;12.33;;
15899;SDS011;8048;50.644;6.184;2023-02-01T00:52:32;18.53;;;10.10;;
15899;SDS011;8048;50.644;6.184;2023-02-01T00:54:58;12.93;;;8.57;;
15899;SDS011;8048;50.644;6.184;2023-02-01T00:57:23;18.03;;;10.40;;
15899;SDS011;8048;50.644;6.184;2023-02-01T00:59:49;12.87;;;9.97;;
15899;SDS011;8048;50.644;6.184;2023-02-01T01:02:14;10.07;;;8.33;;
15899;SDS011;8048;50.644;6.184;2023-02-01T01:04:40;21.73;;;9.03;;
15899;SDS011;8048;50.644;6.184;2023-02-01T01:07:05;11.53;;;8.93;;
15899;SDS011;8048;50.644;6.184;2023-02-01T01:09:31;14.73;;;8.30;;
15899;SDS011;8048;50.644;6.184;2023-02-01T01:11:56;21.00;;;8.33;;
15899;SDS011;8048;50.644;6.184;2023-02-01T01:14:27;10.63;;;7.53;;
15899;SDS011;8048;50.644;6.184;2023-02-01T01:16:53;18.93;;;8.80;;
15899;SDS011;8048;50.644;6.184;2023-02-01T01:19:18;17.00;;;7.60;;
15899;SDS011;8048;50.644;6.184;2023-02-01T01:21:44;17.73;;;9.23;;
15899;SDS011;8048;50.644;6.184;2023-02-01T01:24:09;15.87;;;9.20;;
15899;SDS011;8048;50.644;6.184;2023-02-01T01:26:35;15.30;;;8.50;;
15899;SDS011;8048;50.644;6.184;2023-02-01T01:29:01;24.27;;;9.73;;
15899;SDS011;8048;50.644;6.184;2023-02-01T01:31:26;12.87;;;8.30;;
15899;SDS011;8048;50.644;6.184;2023-02-01T01:33:53;15.40;;;9.67;;
15899;SDS011;8048;50.644;6.184;2023-02-01T01:36:20;14.50;;;8.50;;
15899;SDS011;8048;50.644;6.184;2023-02-01T01:38:46;17.07;;;7.97;;
15899;SDS011;8048;50.644;6.184;2023-02-01T01:41:14;11.43;;;7.23;;
15899;SDS011;8048;50.644;6.184;2023-02-01T01:46:19;16.23;;;9.50;;
15899;SDS011;8048;50.644;6.184;2023-02-01T01:48:47;14.53;;;7.90;;
15899;SDS011;8048;50.644;6.184;2023-02-01T01:51:17;8.30;;;6.70;;
15899;SDS011;8048;50.644;6.184;2023-02-01T01:53:50;18.00;;;7.60;;
15899;SDS011;8048;50.644;6.184;2023-02-01T01:56:24;12.33;;;6.80;;
15899;SDS011;8048;50.644;6.184;2023-02-01T01:58:51;10.40;;;6.90;;
15899;SDS011;8048;50.644;6.184;2023-02-01T02:01:17;8.87;;;6.60;;
15899;SDS011;8048;50.644;6.184;2023-02-01T02:03:43;12.13;;;7.00;;
15899;SDS011;8048;50.644;6.184;2023-02-01T02:09:02;7.60;;;6.80;;
15899;SDS011;8048;50.644;6.184;2023-02-01T02:11:28;10.17;;;6.90;;
15899;SDS011;8048;50.644;6.184;2023-02-01T02:13:54;9.83;;;7.60;;
15899;SDS011;8048;50.644;6.184;2023-02-01T02:19:11;13.77;;;8.03;;
15899;SDS011;8048;50.644;6.184;2023-02-01T02:24:52;10.50;;;7.97;;
15899;SDS011;8048;50.644;6.184;2023-02-01T02:42:00;11.13;;;8.23;;
15899;SDS011;8048;50.644;6.184;2023-02-01T02:44:47;21.40;;;8.27;;
15899;SDS011;8048;50.644;6.184;2023-02-01T02:47:57;8.13;;;6.20;;
15899;SDS011;8048;50.644;6.184;2023-02-01T02:53:35;11.73;;;7.57;;
15899;SDS011;8048;50.644;6.184;2023-02-01T02:56:30;15.07;;;8.30;;
15899;SDS011;8048;50.644;6.184;2023-02-01T02:59:14;18.30;;;9.57;;
15899;SDS011;8048;50.644;6.184;2023-02-01T03:02:03;18.00;;;9.10;;
15899;SDS011;8048;50.644;6.184;2023-02-01T03:04:51;26.27;;;9.33;;
15899;SDS011;8048;50.644;6.184;2023-02-01T03:10:19;20.40;;;10.30;;
15899;SDS011;8048;50.644;6.184;2023-02-01T03:13:08;23.77;;;10.00;;
15899;SDS011;8048;50.644;6.184;2023-02-01T03:15:40;15.33;;;10.20;;
15899;SDS011;8048;50.644;6.184;2023-02-01T03:18:13;17.27;;;9.73;;
15899;SDS011;8048;50.644;6.184;2023-02-01T03:20:46;18.30;;;10.87;;
15899;SDS011;8048;50.644;6.184;2023-02-01T03:23:17;20.93;;;10.63;;
15899;SDS011;8048;50.644;6.184;2023-02-01T03:25:47;15.00;;;10.27;;
15899;SDS011;8048;50.644;6.184;2023-02-01T03:30:50;25.00;;;10.40;;
15899;SDS011;8048;50.644;6.184;2023-02-01T03:33:20;13.67;;;8.53;;
15899;SDS011;8048;50.644;6.184;2023-02-01T03:36:03;14.40;;;7.83;;
15899;SDS011;8048;50.644;6.184;2023-02-01T03:41:17;16.23;;;8.60;;
15899;SDS011;8048;50.644;6.184;2023-02-01T03:43:52;13.17;;;7.20;;
15899;SDS011;8048;50.644;6.184;2023-02-01T03:46:35;9.30;;;6.40;;
15899;SDS011;8048;50.644;6.184;2023-02-01T03:49:06;12.07;;;7.40;;
15899;SDS011;8048;50.644;6.184;2023-02-01T03:51:35;9.77;;;5.80;;
15899;SDS011;8048;50.644;6.184;2023-02-01T03:54:05;11.93;;;6.37;;
15899;SDS011;8048;50.644;6.184;2023-02-01T03:56:34;9.27;;;6.70;;
15899;SDS011;8048;50.644;6.184;2023-02-01T03:59:02;12.13;;;5.70;;
15899;SDS011;8048;50.644;6.184;2023-02-01T04:01:29;9.63;;;5.63;;
15899;SDS011;8048;50.644;6.184;2023-02-01T04:03:56;12.00;;;5.70;;
15899;SDS011;8048;50.644;6.184;2023-02-01T04:06:23;22.13;;;8.07;;
15899;SDS011;8048;50.644;6.184;2023-02-01T04:08:50;7.03;;;5.30;;
15899;SDS011;8048;50.644;6.184;2023-02-01T04:11:16;8.70;;;5.00;;
15899;SDS011;8048;50.644;6.184;2023-02-01T04:13:42;15.23;;;5.27;;
15899;SDS011;8048;50.644;6.184;2023-02-01T04:16:08;8.47;;;4.27;;
15899;SDS011;8048;50.644;6.184;2023-02-01T04:18:33;5.67;;;4.00;;
15899;SDS011;8048;50.644;6.184;2023-02-01T04:20:59;16.07;;;4.50;;
15899;SDS011;8048;50.644;6.184;2023-02-01T04:23:26;4.77;;;3.57;;
15899;SDS011;8048;50.644;6.184;2023-02-01T04:25:52;12.93;;;4.23;;
15899;SDS011;8048;50.644;6.184;2023-02-01T04:28:18;12.00;;;5.77;;
15899;SDS011;8048;50.644;6.184;2023-02-01T04:30:43;6.73;;;3.10;;
15899;SDS011;8048;50.644;6.184;2023-02-01T04:33:10;9.43;;;4.00;;
15899;SDS011;8048;50.644;6.184;2023-02-01T04:35:38;10.73;;;4.80;;
15899;SDS011;8048;50.644;6.184;2023-02-01T04:38:04;6.43;;;5.00;;
15899;SDS011;8048;50.644;6.184;2023-02-01T04:40:30;7.50;;;3.70;;
15899;SDS011;8048;50.644;6.184;2023-02-01T04:42:55;12.40;;;5.83;;
15899;SDS011;8048;50.644;6.184;2023-02-01T04:45:21;11.60;;;4.37;;
15899;SDS011;8048;50.644;6.184;2023-02-01T04:47:46;5.33;;;3.10;;
15899;SDS011;8048;50.644;6.184;2023-02-01T04:50:13;7.30;;;4.83;;
15899;SDS011;8048;50.644;6.184;2023-02-01T04:52:39;6.10;;;4.10;;
15899;SDS011;8048;50.644;6.184;2023-02-01T04:55:05;7.73;;;3.23;;
15899;SDS011;8048;50.644;6.184;2023-02-01T04:57:31;12.13;;;3.63;;
15899;SDS011;8048;50.644;6.184;2023-02-01T04:59:56;10.07;;;4.47;;
15899;SDS011;8048;50.644;6.184;2023-02-01T05:02:22;4.83;;;3.07;;
15899;SDS011;8048;50.644;6.184;2023-02-01T05:04:48;7.47;;;4.13;;
15899;SDS011;8048;50.644;6.184;2023-02-01T05:07:13;8.20;;;3.63;;
15899;SDS011;8048;50.644;6.184;2023-02-01T05:09:39;7.40;;;3.20;;
15899;SDS011;8048;50.644;6.184;2023-02-01T05:12:04;7.43;;;3.93;;
15899;SDS011;8048;50.644;6.184;2023-02-01T05:14:48;5.23;;;4.03;;
15899;SDS011;8048;50.644;6.184;2023-02-01T05:17:14;6.23;;;3.30;;
15899;SDS011;8048;50.644;6.184;2023-02-01T05:19:39;4.23;;;3.03;;
15899;SDS011;8048;50.644;6.184;2023-02-01T05:22:05;10.33;;;3.80;;
15899;SDS011;8048;50.644;6.184;2023-02-01T05:24:30;5.17;;;3.43;;
15899;SDS011;8048;50.644;6.184;2023-02-01T05:26:56;6.30;;;3.90;;
15899;SDS011;8048;50.644;6.184;2023-02-01T05:29:21;16.00;;;4.90;;
15899;SDS011;8048;50.644;6.184;2023-02-01T05:31:48;15.43;;;4.90;;
15899;SDS011;8048;50.644;6.184;2023-02-01T05:34:13;9.90;;;4.00;;
15899;SDS011;8048;50.644;6.184;2023-02-01T05:36:40;11.77;;;4.10;;
15899;SDS011;8048;50.644;6.184;2023-02-01T05:39:05;5.97;;;3.30;;
15899;SDS011;8048;50.644;6.184;2023-02-01T05:41:31;13.20;;;3.97;;
15899;SDS011;8048;50.644;6.184;2023-02-01T05:43:56;6.77;;;3.60;;
15899;SDS011;8048;50.644;6.184;2023-02-01T05:46:22;8.23;;;4.67;;
15899;SDS011;8048;50.644;6.184;2023-02-01T05:48:48;9.47;;;3.53;;
15899;SDS011;8048;50.644;6.184;2023-02-01T05:51:13;5.47;;;4.07;;
15899;SDS011;8048;50.644;6.184;2023-02-01T05:53:39;6.53;;;4.53;;
15899;SDS011;8048;50.644;6.184;2023-02-01T05:56:05;12.43;;;4.60;;
15899;SDS011;8048;50.644;6.184;2023-02-01T05:58:31;13.27;;;4.43;;
15899;SDS011;8048;50.644;6.184;2023-02-01T06:01:00;8.87;;;4.00;;
15899;SDS011;8048;50.644;6.184;2023-02-01T06:03:26;8.67;;;4.50;;
15899;SDS011;8048;50.644;6.184;2023-02-01T06:05:52;6.80;;;3.53;;
15899;SDS011;8048;50.644;6.184;2023-02-01T06:08:18;16.83;;;4.03;;
15899;SDS011;8048;50.644;6.184;2023-02-01T06:10:43;8.80;;;4.10;;
15899;SDS011;8048;50.644;6.184;2023-02-01T06:13:09;10.97;;;2.90;;
15899;SDS011;8048;50.644;6.184;2023-02-01T06:15:35;7.23;;;3.40;;
15899;SDS011;8048;50.644;6.184;2023-02-01T06:18:02;6.53;;;3.40;;
15899;SDS011;8048;50.644;6.184;2023-02-01T06:20:28;5.67;;;4.63;;
15899;SDS011;8048;50.644;6.184;2023-02-01T06:22:53;12.90;;;4.03;;
15899;SDS011;8048;50.644;6.184;2023-02-01T06:25:19;8.23;;;4.33;;
15899;SDS011;8048;50.644;6.184;2023-02-01T06:27:46;11.57;;;2.97;;
15899;SDS011;8048;50.644;6.184;2023-02-01T06:30:12;7.10;;;3.30;;
15899;SDS011;8048;50.644;6.184;2023-02-01T06:32:41;6.40;;;3.37;;
15899;SDS011;8048;50.644;6.184;2023-02-01T06:35:07;10.97;;;2.77;;
15899;SDS011;8048;50.644;6.184;2023-02-01T06:37:36;10.47;;;3.20;;
15899;SDS011;8048;50.644;6.184;2023-02-01T06:40:02;7.73;;;3.50;;
15899;SDS011;8048;50.644;6.184;2023-02-01T06:42:28;9.57;;;3.33;;
15899;SDS011;8048;50.644;6.184;2023-02-01T06:44:54;5.93;;;3.10;;
15899;SDS011;8048;50.644;6.184;2023-02-01T06:47:19;7.90;;;3.43;;
15899;SDS011;8048;50.644;6.184;2023-02-01T06:49:45;7.20;;;3.70;;
15899;SDS011;8048;50.644;6.184;2023-02-01T06:52:10;4.37;;;3.70;;
15899;SDS011;8048;50.644;6.184;2023-02-01T06:54:36;18.50;;;4.07;;
15899;SDS011;8048;50.644;6.184;2023-02-01T06:57:02;12.20;;;5.37;;
15899;SDS011;8048;50.644;6.184;2023-02-01T06:59:28;8.03;;;3.50;;
15899;SDS011;8048;50.644;6.184;2023-02-01T07:01:53;9.33;;;4.60;;
15899;SDS011;8048;50.644;6.184;2023-02-01T07:04:20;4.10;;;2.80;;
15899;SDS011;8048;50.644;6.184;2023-02-01T07:06:46;12.20;;;4.40;;
15899;SDS011;8048;50.644;6.184;2023-02-01T07:09:11;5.23;;;3.10;;
15899;SDS011;8048;50.644;6.184;2023-02-01T07:11:38;9.83;;;3.33;;
15899;SDS011;8048;50.644;6.184;2023-02-01T07:14:08;6.90;;;2.70;;
15899;SDS011;8048;50.644;6.184;2023-02-01T07:16:34;10.40;;;4.03;;
15899;SDS011;8048;50.644;6.184;2023-02-01T07:18:59;10.50;;;4.60;;
15899;SDS011;8048;50.644;6.184;2023-02-01T07:21:25;7.77;;;3.70;;
15899;SDS011;8048;50.644;6.184;2023-02-01T07:23:52;4.50;;;3.47;;
15899;SDS011;8048;50.644;6.184;2023-02-01T07:26:18;5.97;;;5.47;;
15899;SDS011;8048;50.644;6.184;2023-02-01T07:28:44;13.00;;;3.80;;
15899;SDS011;8048;50.644;6.184;2023-02-01T07:31:13;7.00;;;4.20;;
15899;SDS011;8048;50.644;6.184;2023-02-01T07:33:42;7.87;;;5.27;;
15899;SDS011;8048;50.644;6.184;2023-02-01T07:36:10;15.73;;;5.57;;
15899;SDS011;8048;50.644;6.184;2023-02-01T07:38:38;5.10;;;4.00;;
15899;SDS011;8048;50.644;6.184;2023-02-01T07:41:04;5.90;;;3.77;;
15899;SDS011;8048;50.644;6.184;2023-02-01T07:43:30;4.90;;;3.90;;
15899;SDS011;8048;50.644;6.184;2023-02-01T07:45:58;4.83;;;4.00;;
15899;SDS011;8048;50.644;6.184;2023-02-01T07:48:24;28.87;;;4.90;;
15899;SDS011;8048;50.644;6.184;2023-02-01T07:51:01;8.33;;;4.40;;
15899;SDS011;8048;50.644;6.184;2023-02-01T07:53:26;4.80;;;3.33;;
15899;SDS011;8048;50.644;6.184;2023-02-01T07:55:54;9.07;;;4.27;;
15899;SDS011;8048;50.644;6.184;2023-02-01T07:58:20;20.93;;;5.10;;
15899;SDS011;8048;50.644;6.184;2023-02-01T08:00:47;5.97;;;4.57;;
15899;SDS011;8048;50.644;6.184;2023-02-01T08:03:31;11.23;;;3.87;;
15899;SDS011;8048;50.644;6.184;2023-02-01T08:05:57;7.10;;;4.10;;
15899;SDS011;8048;50.644;6.184;2023-02-01T08:08:22;7.93;;;3.47;;
15899;SDS011;8048;50.644;6.184;2023-02-01T08:10:48;7.73;;;3.90;;
15899;SDS011;8048;50.644;6.184;2023-02-01T08:13:14;5.00;;;3.30;;
15899;SDS011;8048;50.644;6.184;2023-02-01T08:15:40;17.70;;;4.00;;
15899;SDS011;8048;50.644;6.184;2023-02-01T08:18:05;6.40;;;3.73;;
15899;SDS011;8048;50.644;6.184;2023-02-01T08:20:31;13.17;;;3.93;;
15899;SDS011;8048;50.644;6.184;2023-02-01T08:22:59;9.00;;;4.97;;
15899;SDS011;8048;50.644;6.184;2023-02-01T08:25:24;8.47;;;3.57;;
15899;SDS011;8048;50.644;6.184;2023-02-01T08:27:50;12.60;;;3.83;;
15899;SDS011;8048;50.644;6.184;2023-02-01T08:30:16;6.33;;;3.67;;
15899;SDS011;8048;50.644;6.184;2023-02-01T08:32:42;23.13;;;4.10;;
15899;SDS011;8048;50.644;6.184;2023-02-01T08:35:07;14.23;;;4.70;;
15899;SDS011;8048;50.644;6.184;2023-02-01T08:37:33;10.83;;;3.73;;
15899;SDS011;8048;50.644;6.184;2023-02-01T08:39:59;17.50;;;5.77;;
15899;SDS011;8048;50.644;6.184;2023-02-01T08:42:24;4.63;;;3.67;;
15899;SDS011;8048;50.644;6.184;2023-02-01T08:45:09;11.60;;;3.80;;
15899;SDS011;8048;50.644;6.184;2023-02-01T08:47:35;5.50;;;3.80;;
15899;SDS011;8048;50.644;6.184;2023-02-01T08:50:01;9.53;;;3.60;;
15899;SDS011;8048;50.644;6.184;2023-02-01T08:52:26;4.90;;;4.00;;
15899;SDS011;8048;50.644;6.184;2023-02-01T08:54:52;9.23;;;4.10;;
15899;SDS011;8048;50.644;6.184;2023-02-01T08:57:17;7.87;;;3.03;;
15899;SDS011;8048;50.644;6.184;2023-02-01T08:59:43;15.67;;;4.03;;
15899;SDS011;8048;50.644;6.184;2023-02-01T09:02:12;8.00;;;3.60;;
15899;SDS011;8048;50.644;6.184;2023-02-01T09:04:38;12.03;;;4.20;;
15899;SDS011;8048;50.644;6.184;2023-02-01T09:07:04;7.63;;;3.90;;
15899;SDS011;8048;50.644;6.184;2023-02-01T09:09:29;11.03;;;3.57;;
15899;SDS011;8048;50.644;6.184;2023-02-01T09:11:55;11.77;;;4.40;;
15899;SDS011;8048;50.644;6.184;2023-02-01T09:14:20;14.87;;;4.30;;
15899;SDS011;8048;50.644;6.184;2023-02-01T09:16:46;8.60;;;3.73;;
15899;SDS011;8048;50.644;6.184;2023-02-01T09:19:11;11.83;;;4.50;;
15899;SDS011;8048;50.644;6.184;2023-02-01T09:21:37;5.73;;;3.73;;
15899;SDS011;8048;50.644;6.184;2023-02-01T09:24:03;6.20;;;3.60;;
15899;SDS011;8048;50.644;6.184;2023-02-01T09:26:29;13.63;;;3.80;;
15899;SDS011;8048;50.644;6.184;2023-02-01T09:28:54;12.00;;;4.27;;
15899;SDS011;8048;50.644;6.184;2023-02-01T09:31:20;13.83;;;4.37;;
15899;SDS011;8048;50.644;6.184;2023-02-01T09:33:46;16.50;;;4.43;;
15899;SDS011;8048;50.644;6.184;2023-02-01T09:36:11;4.60;;;3.20;;
15899;SDS011;8048;50.644;6.184;2023-02-01T09:38:38;7.87;;;4.00;;
15899;SDS011;8048;50.644;6.184;2023-02-01T09:41:10;7.40;;;4.33;;
15899;SDS011;8048;50.644;6.184;2023-02-01T09:44:03;4.23;;;3.93;;
15899;SDS011;8048;50.644;6.184;2023-02-01T09:46:53;6.73;;;4.03;;
15899;SDS011;8048;50.644;6.184;2023-02-01T09:49:22;6.83;;;3.43;;
15899;SDS011;8048;50.644;6.184;2023-02-01T09:51:59;9.23;;;4.03;;
15899;SDS011;8048;50.644;6.184;2023-02-01T09:54:29;7.83;;;3.57;;
15899;SDS011;8048;50.644;6.184;2023-02-01T09:57:11;8.60;;;3.93;;
15899;SDS011;8048;50.644;6.184;2023-02-01T09:59:53;13.70;;;4.30;;
15899;SDS011;8048;50.644;6.184;2023-02-01T10:02:26;8.03;;;3.40;;
15899;SDS011;8048;50.644;6.184;2023-02-01T10:04:54;11.13;;;6.20;;
15899;SDS011;8048;50.644;6.184;2023-02-01T10:07:28;4.10;;;3.80;;
15899;SDS011;8048;50.644;6.184;2023-02-01T10:10:11;5.60;;;3.10;;
15899;SDS011;8048;50.644;6.184;2023-02-01T10:26:25;9.13;;;3.63;;
15899;SDS011;8048;50.644;6.184;2023-02-01T10:28:57;7.70;;;3.90;;
15899;SDS011;8048;50.644;6.184;2023-02-01T10:31:26;9.53;;;4.07;;
15899;SDS011;8048;50.644;6.184;2023-02-01T10:33:56;5.13;;;3.67;;
15899;SDS011;8048;50.644;6.184;2023-02-01T10:36:28;7.27;;;4.17;;
15899;SDS011;8048;50.644;6.184;2023-02-01T10:38:54;8.30;;;3.73;;
15899;SDS011;8048;50.644;6.184;2023-02-01T10:41:22;8.70;;;3.23;;
15899;SDS011;8048;50.644;6.184;2023-02-01T10:43:55;10.53;;;3.40;;
15899;SDS011;8048;50.644;6.184;2023-02-01T10:46:23;5.73;;;3.13;;
15899;SDS011;8048;50.644;6.184;2023-02-01T10:48:49;3.53;;;2.80;;
15899;SDS011;8048;50.644;6.184;2023-02-01T10:51:27;7.00;;;3.83;;
15899;SDS011;8048;50.644;6.184;2023-02-01T10:54:00;9.60;;;5.40;;
15899;SDS011;8048;50.644;6.184;2023-02-01T10:56:39;15.53;;;5.37;;
15899;SDS011;8048;50.644;6.184;2023-02-01T10:59:05;10.23;;;5.80;;
15899;SDS011;8048;50.644;6.184;2023-02-01T11:01:40;7.30;;;3.60;;
15899;SDS011;8048;50.644;6.184;2023-02-01T11:04:19;9.77;;;6.53;;
15899;SDS011;8048;50.644;6.184;2023-02-01T11:06:46;11.10;;;3.90;;
15899;SDS011;8048;50.644;6.184;2023-02-01T11:09:16;6.77;;;3.33;;
15899;SDS011;8048;50.644;6.184;2023-02-01T11:14:15;4.10;;;2.90;;
15899;SDS011;8048;50.644;6.184;2023-02-01T11:16:46;5.87;;;4.23;;
15899;SDS011;8048;50.644;6.184;2023-02-01T11:19:17;9.67;;;2.93;;
15899;SDS011;8048;50.644;6.184;2023-02-01T11:21:43;6.30;;;3.63;;
15899;SDS011;8048;50.644;6.184;2023-02-01T11:24:26;7.03;;;3.07;;
15899;SDS011;8048;50.644;6.184;2023-02-01T11:27:01;9.00;;;3.33;;
15899;SDS011;8048;50.644;6.184;2023-02-01T11:29:35;11.90;;;3.77;;
15899;SDS011;8048;50.644;6.184;2023-02-01T11:32:03;12.57;;;3.23;;
15899;SDS011;8048;50.644;6.184;2023-02-01T11:34:49;7.57;;;3.17;;
15899;SDS011;8048;50.644;6.184;2023-02-01T11:37:20;3.07;;;2.77;;
15899;SDS011;8048;50.644;6.184;2023-02-01T11:39:54;6.20;;;2.50;;
15899;SDS011;8048;50.644;6.184;2023-02-01T11:42:22;4.73;;;2.63;;
15899;SDS011;8048;50.644;6.184;2023-02-01T11:44:48;5.00;;;2.80;;
15899;SDS011;8048;50.644;6.184;2023-02-01T11:58:21;15.80;;;2.90;;
15899;SDS011;8048;50.644;6.184;2023-02-01T12:01:00;3.57;;;2.30;;
15899;SDS011;8048;50.644;6.184;2023-02-01T12:06:33;5.43;;;1.90;;
15899;SDS011;8048;50.644;6.184;2023-02-01T12:17:19;5.37;;;1.90;;
15899;SDS011;8048;50.644;6.184;2023-02-01T12:42:07;5.07;;;2.57;;
15899;SDS011;8048;50.644;6.184;2023-02-01T12:44:43;3.27;;;2.50;;
15899;SDS011;8048;50.644;6.184;2023-02-01T12:47:31;7.67;;;3.70;;
15899;SDS011;8048;50.644;6.184;2023-02-01T12:50:15;4.13;;;2.23;;
15899;SDS011;8048;50.644;6.184;2023-02-01T12:53:06;5.13;;;2.63;;
15899;SDS011;8048;50.644;6.184;2023-02-01T12:55:49;4.03;;;2.30;;
15899;SDS011;8048;50.644;6.184;2023-02-01T13:01:06;6.77;;;2.87;;
15899;SDS011;8048;50.644;6.184;2023-02-01T13:06:20;5.83;;;2.07;;
15899;SDS011;8048;50.644;6.184;2023-02-01T13:11:34;3.53;;;2.77;;
15899;SDS011;8048;50.644;6.184;2023-02-01T13:14:06;3.40;;;1.60;;
15899;SDS011;8048;50.644;6.184;2023-02-01T13:16:43;6.37;;;2.50;;
15899;SDS011;8048;50.644;6.184;2023-02-01T13:19:18;2.27;;;1.40;;
15899;SDS011;8048;50.644;6.184;2023-02-01T13:21:49;4.07;;;1.87;;
15899;SDS011;8048;50.644;6.184;2023-02-01T13:24:30;6.00;;;1.60;;
15899;SDS011;8048;50.644;6.184;2023-02-01T13:27:01;6.10;;;2.10;;
15899;SDS011;8048;50.644;6.184;2023-02-01T13:29:26;9.20;;;2.60;;
15899;SDS011;8048;50.644;6.184;2023-02-01T13:38:11;10.40;;;2.37;;
15899;SDS011;8048;50.644;6.184;2023-02-01T13:41:24;3.83;;;2.33;;
15899;SDS011;8048;50.644;6.184;2023-02-01T13:43:53;9.20;;;2.10;;
15899;SDS011;8048;50.644;6.184;2023-02-01T13:46:28;3.00;;;1.63;;
15899;SDS011;8048;50.644;6.184;2023-02-01T13:48:56;5.00;;;2.33;;
15899;SDS011;8048;50.644;6.184;2023-02-01T13:51:36;9.73;;;1.93;;
15899;SDS011;8048;50.644;6.184;2023-02-01T13:54:06;4.00;;;1.87;;
15899;SDS011;8048;50.644;6.184;2023-02-01T13:56:41;2.17;;;1.93;;
15899;SDS011;8048;50.644;6.184;2023-02-01T14:02:35;2.17;;;1.97;;
15899;SDS011;8048;50.644;6.184;2023-02-01T14:05:09;5.40;;;1.70;;
15899;SDS011;8048;50.644;6.184;2023-02-01T14:07:36;2.53;;;2.33;;
15899;SDS011;8048;50.644;6.184;2023-02-01T14:13:13;1.53;;;1.43;;
15899;SDS011;8048;50.644;6.184;2023-02-01T14:23:42;2.47;;;2.27;;
15899;SDS011;8048;50.644;6.184;2023-02-01T14:26:11;4.17;;;2.23;;
15899;SDS011;8048;50.644;6.184;2023-02-01T14:28:43;6.63;;;2.00;;
15899;SDS011;8048;50.644;6.184;2023-02-01T14:31:54;8.93;;;2.83;;
15899;SDS011;8048;50.644;6.184;2023-02-01T14:34:10;6.90;;;2.40;;
15899;SDS011;8048;50.644;6.184;2023-02-01T14:36:45;5.33;;;2.90;;
15899;SDS011;8048;50.644;6.184;2023-02-01T14:39:22;3.17;;;1.63;;
15899;SDS011;8048;50.644;6.184;2023-02-01T14:41:56;3.93;;;2.23;;
15899;SDS011;8048;50.644;6.184;2023-02-01T14:44:49;5.50;;;2.40;;
15899;SDS011;8048;50.644;6.184;2023-02-01T14:52:31;3.37;;;1.80;;
15899;SDS011;8048;50.644;6.184;2023-02-01T14:55:01;18.87;;;3.07;;
15899;SDS011;8048;50.644;6.184;2023-02-01T14:57:30;5.00;;;2.03;;
15899;SDS011;8048;50.644;6.184;2023-02-01T15:00:06;4.93;;;2.30;;
15899;SDS011;8048;50.644;6.184;2023-02-01T15:02:39;3.67;;;1.90;;
15899;SDS011;8048;50.644;6.184;2023-02-01T15:05:16;6.10;;;2.10;;
15899;SDS011;8048;50.644;6.184;2023-02-01T15:08:11;11.20;;;2.33;;
15899;SDS011;8048;50.644;6.184;2023-02-01T15:10:45;8.47;;;2.80;;
15899;SDS011;8048;50.644;6.184;2023-02-01T15:13:23;6.30;;;2.40;;
15899;SDS011;8048;50.644;6.184;2023-02-01T15:18:47;3.17;;;2.83;;
15899;SDS011;8048;50.644;6.184;2023-02-01T15:21:31;6.73;;;2.67;;
15899;SDS011;8048;50.644;6.184;2023-02-01T15:24:13;3.77;;;2.17;;
15899;SDS011;8048;50.644;6.184;2023-02-01T15:26:45;3.90;;;2.20;;
15899;SDS011;8048;50.644;6.184;2023-02-01T15:29:11;6.07;;;2.13;;
15899;SDS011;8048;50.644;6.184;2023-02-01T15:31:39;6.83;;;1.87;;
15899;SDS011;8048;50.644;6.184;2023-02-01T15:34:05;4.10;;;1.50;;
15899;SDS011;8048;50.644;6.184;2023-02-01T15:36:31;8.33;;;2.20;;
15899;SDS011;8048;50.644;6.184;2023-02-01T15:41:54;2.30;;;1.50;;
15899;SDS011;8048;50.644;6.184;2023-02-01T15:44:33;3.80;;;1.60;;
15899;SDS011;8048;50.644;6.184;2023-02-01T15:47:05;5.93;;;2.63;;
15899;SDS011;8048;50.644;6.184;2023-02-01T15:49:58;6.73;;;2.43;;
15899;SDS011;8048;50.644;6.184;2023-02-01T15:52:39;8.13;;;2.23;;
15899;SDS011;8048;50.644;6.184;2023-02-01T15:55:07;1.53;;;1.43;;
15899;SDS011;8048;50.644;6.184;2023-02-01T15:57:42;3.87;;;3.00;;
15899;SDS011;8048;50.644;6.184;2023-02-01T16:00:20;2.57;;;2.37;;
15899;SDS011;8048;50.644;6.184;2023-02-01T16:02:57;3.40;;;2.10;;
15899;SDS011;8048;50.644;6.184;2023-02-01T16:05:34;3.90;;;2.10;;
15899;SDS011;8048;50.644;6.184;2023-02-01T16:10:43;5.27;;;2.50;;
15899;SDS011;8048;50.644;6.184;2023-02-01T16:13:10;7.67;;;2.70;;
15899;SDS011;8048;50.644;6.184;2023-02-01T16:15:37;4.30;;;3.87;;
15899;SDS011;8048;50.644;6.184;2023-02-01T16:18:03;7.17;;;2.77;;
15899;SDS011;8048;50.644;6.184;2023-02-01T16:20:29;2.83;;;1.93;;
15899;SDS011;8048;50.644;6.184;2023-02-01T16:22:55;2.30;;;1.87;;
15899;SDS011;8048;50.644;6.184;2023-02-01T16:25:21;3.83;;;3.10;;
15899;SDS011;8048;50.644;6.184;2023-02-01T16:27:46;7.00;;;3.00;;
15899;SDS011;8048;50.644;6.184;2023-02-01T16:30:13;9.93;;;4.17;;
15899;SDS011;8048;50.644;6.184;2023-02-01T16:32:38;5.70;;;2.90;;
15899;SDS011;8048;50.644;6.184;2023-02-01T16:35:22;6.40;;;2.87;;
15899;SDS011;8048;50.644;6.184;2023-02-01T16:37:48;6.20;;;2.77;;
15899;SDS011;8048;50.644;6.184;2023-02-01T16:40:14;9.33;;;2.50;;
15899;SDS011;8048;50.644;6.184;2023-02-01T16:42:41;3.10;;;2.80;;
15899;SDS011;8048;50.644;6.184;2023-02-01T16:45:07;14.53;;;2.90;;
15899;SDS011;8048;50.644;6.184;2023-02-01T16:47:33;7.00;;;2.53;;
15899;SDS011;8048;50.644;6.184;2023-02-01T16:50:02;7.60;;;4.47;;
15899;SDS011;8048;50.644;6.184;2023-02-01T16:52:28;5.70;;;2.87;;
15899;SDS011;8048;50.644;6.184;2023-02-01T16:54:54;10.63;;;4.67;;
15899;SDS011;8048;50.644;6.184;2023-02-01T16:57:19;7.53;;;3.37;;
15899;SDS011;8048;50.644;6.184;2023-02-01T16:59:48;4.70;;;3.73;;
15899;SDS011;8048;50.644;6.184;2023-02-01T17:02:18;3.10;;;2.90;;
15899;SDS011;8048;50.644;6.184;2023-02-01T17:04:44;8.63;;;2.97;;
15899;SDS011;8048;50.644;6.184;2023-02-01T17:07:17;5.00;;;3.63;;
15899;SDS011;8048;50.644;6.184;2023-02-01T17:09:43;3.17;;;2.83;;
15899;SDS011;8048;50.644;6.184;2023-02-01T17:12:23;4.70;;;3.30;;
15899;SDS011;8048;50.644;6.184;2023-02-01T17:14:49;11.27;;;2.90;;
15899;SDS011;8048;50.644;6.184;2023-02-01T17:17:15;16.77;;;4.77;;
15899;SDS011;8048;50.644;6.184;2023-02-01T17:19:41;7.67;;;3.70;;
15899;SDS011;8048;50.644;6.184;2023-02-01T17:22:08;4.40;;;3.77;;
15899;SDS011;8048;50.644;6.184;2023-02-01T17:24:33;5.27;;;3.43;;
15899;SDS011;8048;50.644;6.184;2023-02-01T17:26:59;14.07;;;4.73;;
15899;SDS011;8048;50.644;6.184;2023-02-01T17:29:24;7.53;;;3.57;;
15899;SDS011;8048;50.644;6.184;2023-02-01T17:31:51;6.13;;;3.70;;